Temple, Maine
Current Conditions -  °F | °C
As of 6:35 AM on Thursday 18 Dec 2014 (Local Time) from KWVL Reporting Station
Overcast Overcast  
Wind Chill: 26°   Ceiling: 600
Heat Index: 34°   Visibility: 4mi
Dew Point: 28°   Wind: 9mph
Humidity: 81%   Direction: 320°NW
Pressure: 29.59"   Gusts: NA
Location:  44.68°N, 70.23°W
Report Text: KWVL 181135Z 32008KT 4SM OVC006 01/M02 A2959 RMK AO1 P0001
Loading
Personal Weather Stations






























Interactive Weather Map New forecast layout! Learn more

10-Day Weather Forecast

Advertisements
Track Severe Weather on mobile